Ernest Campbell — WDB3005 — position and weather

sailwx.info

Track history (hours):
 
Tides and Currents Weather Stations Pressure Air Temp Water Temp Dewpoint Dewpoint Depression Visibility Wind Speed Wind Dir Waves Ship Positions

Ernest Campbell

Owner: Campbell Leasing Company LLC, Wrangell, AK. More information available from US FCC via Universal Licensing System and Coast Guard Vessel Documentation Center.

Last reported at 2015-May-22 21:33 UTC. Time now 2015-May-22 22:12 UTC.
Position N 47°36' W 122°21'.

Length 33 m; draft 4.6 m.

Type: Tow > 200 m length. MMSI: 366882320.

Date/timePositionNaut miles runAvg speedWind from/ knotsBaromVisibWave heightAir tempDewpointWater temp
2015-May-22 21:33N 47°36' W 122°21'0 0.1
2015-May-22 21:29N 47°36' W 122°21'0 0.0
2015-May-22 20:33N 47°36' W 122°21'0 0.0
2015-May-22 20:33N 47°36' W 122°21'0 0.0
2015-May-22 19:33N 47°36' W 122°21'0 0.0
2015-May-22 19:33N 47°36' W 122°21'0 0.0
2015-May-22 18:33N 47°36' W 122°21'0 0.0
2015-May-22 18:33N 47°36' W 122°21'0 0.0
2015-May-22 17:33N 47°36' W 122°21'0 0.0
2015-May-22 17:27N 47°36' W 122°21'0 0.0
2015-May-22 16:33N 47°36' W 122°21'0 0.2
2015-May-22 16:31N 47°36' W 122°21'1 1.2
2015-May-22 15:33N 47°34' W 122°21'1 2.0
2015-May-22 14:59N 47°36' W 122°21'0 0.0
2015-May-22 14:33N 47°36' W 122°21'0 0.8
2015-May-22 14:30N 47°36' W 122°21'4 4.6
2015-May-22 13:33N 47°34' W 122°27'7 6.8
2015-May-22 12:33N 47°28' W 122°31'7 6.8
2015-May-22 11:33N 47°21' W 122°32'6 6.1
2015-May-22 10:33N 47°17' W 122°26'2 2.0
2015-May-22 09:25N 47°16' W 122°23'0 0.0
2015-May-22 08:29N 47°16' W 122°23'0 0.0
2015-May-22 07:33N 47°16' W 122°23'0 0.0
2015-May-22 06:31N 47°16' W 122°23'0 0.0
2015-May-22 05:30N 47°16' W 122°23'0 0.0
2015-May-22 04:33N 47°16' W 122°23'0 0.0
2015-May-22 00:06N 47°16' W 122°23'0 0.0
2015-May-21 22:22N 47°16' W 122°23'0 0.0
2015-May-21 17:07N 47°16' W 122°23'0 0.0
2015-May-21 14:28N 47°16' W 122°23'0 0.0
2015-May-21 09:04N 47°16' W 122°23'0 0.0
2015-May-21 08:04N 47°16' W 122°23'0 0.2
2015-May-21 07:33N 47°16' W 122°23'0 0.0
2015-May-21 06:32N 47°16' W 122°23'0 0.0
2015-May-21 05:33N 47°16' W 122°23'0 0.0
2015-May-21 04:32N 47°16' W 122°23'0 0.0
2015-May-21 03:33N 47°16' W 122°23'0 0.3
2015-May-21 02:33N 47°16' W 122°23'2 2.4
2015-May-21 01:42N 47°17' W 122°26'0 0.0
2015-May-21 01:33N 47°17' W 122°26'3 3.2
2015-May-21 00:33N 47°19' W 122°30'4 4.4
2015-May-20 23:33N 47°23' W 122°32'0 4.9
2015-May-20 23:31N 47°23' W 122°32'5 5.0
2015-May-20 22:33N 47°28' W 122°31'2 4.8
2015-May-20 22:05N 47°30' W 122°30'3 4.9
2015-May-20 21:33N 47°32' W 122°28'0 5.3
2015-May-20 21:30N 47°33' W 122°28'5 5.1
2015-May-20 20:32N 47°36' W 122°23'0 5.2
2015-May-20 20:30N 47°36' W 122°23'1 1.4
2015-May-20 19:33N 47°35' W 122°21'0 0.0
2015-May-20 19:30N 47°35' W 122°21'0 0.0
2015-May-20 18:28N 47°35' W 122°21'0 0.0
2015-May-20 18:20N 47°35' W 122°21'0 0.0
2015-May-20 17:33N 47°35' W 122°21'0 0.0
2015-May-20 17:19N 47°35' W 122°21'0 0.1
2015-May-20 16:33N 47°35' W 122°21'0 0.0
2015-May-20 16:33N 47°35' W 122°21'0 0.0
2015-May-20 15:33N 47°35' W 122°21'0 0.0
2015-May-20 15:33N 47°35' W 122°21'0 0.0
2015-May-20 14:33N 47°35' W 122°21'0 0.0
2015-May-20 13:33N 47°35' W 122°21'0 3.5
2015-May-20 13:33N 47°35' W 122°21'0 0.0
2015-May-20 12:28N 47°35' W 122°21'0 0.0
2015-May-20 12:16N 47°35' W 122°21'0 0.0
2015-May-20 11:23N 47°35' W 122°21'0 0.0
2015-May-20 10:33N 47°35' W 122°21'0 0.8
2015-May-20 10:30N 47°35' W 122°21'0 0.0
2015-May-20 09:33N 47°35' W 122°21'0 0.0
2015-May-20 08:59N 47°35' W 122°21'0 0.1
2015-May-20 08:33N 47°35' W 122°21'0 0.0
2015-May-20 08:24N 47°35' W 122°21'0 0.0
2015-May-20 07:33N 47°35' W 122°21'0 0.0
2015-May-20 07:18N 47°35' W 122°21'0 0.1
2015-May-20 06:33N 47°35' W 122°21'0 0.0
2015-May-20 06:33N 47°35' W 122°21'0 0.1
2015-May-20 06:08N 47°35' W 122°21'0 0.0
2015-May-20 05:33N 47°35' W 122°21'0 0.0
2015-May-20 04:32N 47°35' W 122°21'0 0.1
2015-May-20 04:28N 47°35' W 122°21'0 0.0
2015-May-20 03:31N 47°35' W 122°21'0 0.2
2015-May-20 03:18N 47°35' W 122°21'0 0.0
2015-May-20 02:33N 47°35' W 122°21'0 0.0
2015-May-20 02:22N 47°35' W 122°21'0 0.0
2015-May-20 01:32N 47°35' W 122°21'0 0.0
2015-May-20 01:32N 47°35' W 122°21'0 0.3
2015-May-20 00:33N 47°35' W 122°21'0 5.3
2015-May-20 00:32N 47°35' W 122°21'0 0.4
2015-May-19 23:33N 47°35' W 122°21'0 0.2
2015-May-19 23:31N 47°35' W 122°21'0 0.0
2015-May-19 22:31N 47°35' W 122°21'0 0.0
2015-May-19 22:31N 47°35' W 122°21'0 0.0
2015-May-19 21:31N 47°35' W 122°21'0 0.0
2015-May-19 20:31N 47°35' W 122°21'0 0.0
2015-May-19 19:33N 47°35' W 122°21'0 0.0
2015-May-19 18:33N 47°35' W 122°21'0 0.0
2015-May-19 17:33N 47°35' W 122°21'0 0.0
2015-May-19 16:32N 47°35' W 122°21'0 0.0
2015-May-19 15:33N 47°35' W 122°21'0 0.0
2015-May-19 14:32N 47°35' W 122°21'0 0.0
2015-May-19 13:29N 47°35' W 122°21'0 0.0
2015-May-19 12:33N 47°35' W 122°21'0 0.0
2015-May-19 11:46N 47°35' W 122°21'0 0.0
2015-May-19 11:33N 47°35' W 122°21'0 0.0
2015-May-19 11:30N 47°35' W 122°21'0 0.0
2015-May-19 10:33N 47°35' W 122°21'0 0.0
2015-May-19 10:30N 47°35' W 122°21'0 0.0
2015-May-19 09:33N 47°35' W 122°21'0 0.1
2015-May-19 09:30N 47°35' W 122°21'0 0.0
2015-May-19 08:33N 47°35' W 122°21'0 0.4
2015-May-19 08:30N 47°35' W 122°21'4 4.3
2015-May-19 07:33N 47°33' W 122°26'0 6.4
2015-May-19 07:30N 47°33' W 122°26'5 7.0
2015-May-19 06:44N 47°28' W 122°24'1 7.0
2015-May-19 06:33N 47°26' W 122°23'6 5.5
2015-May-19 05:33N 47°21' W 122°24'4 4.2
2015-May-19 04:33N 47°17' W 122°25'0 0.0
2015-May-19 03:33N 47°17' W 122°25'0 0.0
2015-May-19 02:33N 47°17' W 122°25'0 0.0
2015-May-19 01:33N 47°17' W 122°25'0 0.0
2015-May-19 00:40N 47°17' W 122°25'0 0.0
2015-May-19 00:33N 47°17' W 122°25'0 0.0
2015-May-18 23:35N 47°17' W 122°25'0 1.6
2015-May-18 23:33N 47°17' W 122°25'4 3.9
2015-May-18 22:33N 47°20' W 122°28'4 6.3
2015-May-18 21:58N 47°22' W 122°23'2 4.6
2015-May-18 21:33N 47°24' W 122°23'2 5.4
2015-May-18 21:13N 47°26' W 122°24'4 5.7
2015-May-18 20:33N 47°29' W 122°26'0 5.3
2015-May-18 20:29N 47°30' W 122°26'5 5.2
2015-May-18 19:33N 47°35' W 122°26'043.2
2015-May-18 19:33N 47°35' W 122°26'4 3.6
2015-May-18 18:33N 47°36' W 122°21'0 0.0
2015-May-18 18:22N 47°36' W 122°21'0 0.0
2015-May-18 17:29N 47°36' W 122°21'0 0.0
2015-May-18 17:27N 47°36' W 122°21'0 0.0
2015-May-18 16:33N 47°36' W 122°21'0 0.0
2015-May-18 16:32N 47°36' W 122°21'0 0.0
2015-May-18 15:33N 47°36' W 122°21'0 0.3
2015-May-18 15:32N 47°36' W 122°21'0 0.0
2015-May-18 14:33N 47°36' W 122°21'0 0.1
2015-May-18 14:26N 47°36' W 122°21'0 0.0
2015-May-18 13:28N 47°36' W 122°21'0 0.0
2015-May-18 13:14N 47°36' W 122°21'1 0.9
2015-May-18 12:33N 47°35' W 122°21'0 0.1
2015-May-18 12:29N 47°35' W 122°21'0 0.0
2015-May-18 11:33N 47°35' W 122°21'0 0.1
2015-May-18 11:29N 47°35' W 122°21'0 0.0
2015-May-18 10:33N 47°35' W 122°21'0 0.0
2015-May-18 10:14N 47°35' W 122°21'0 0.0
2015-May-18 09:33N 47°35' W 122°21'0 0.0
2015-May-18 09:12N 47°35' W 122°21'0 0.0
2015-May-18 08:33N 47°35' W 122°21'0 0.0
2015-May-18 08:28N 47°35' W 122°21'0 0.0
2015-May-18 07:32N 47°35' W 122°21'0 0.0
2015-May-18 07:27N 47°35' W 122°21'1 0.6
2015-May-18 06:33N 47°34' W 122°21'0 0.0
2015-May-18 06:32N 47°34' W 122°21'0 0.0
2015-May-18 06:12N 47°34' W 122°21'0 0.0
2015-May-18 05:33N 47°34' W 122°21'0 0.0
2015-May-18 04:33N 47°34' W 122°21'0 0.0
2015-May-18 04:31N 47°34' W 122°21'0 0.0
2015-May-18 03:31N 47°34' W 122°21'0 0.4
2015-May-18 03:30N 47°34' W 122°21'1 1.0
2015-May-18 02:33N 47°35' W 122°21'0 3.0
2015-May-18 02:29N 47°36' W 122°21'0 0.1
2015-May-18 01:33N 47°35' W 122°21'0 0.0
2015-May-18 01:29N 47°35' W 122°21'0 0.0
2015-May-18 00:33N 47°35' W 122°21'0 0.0
2015-May-18 00:28N 47°35' W 122°21'0 0.0
2015-May-17 23:33N 47°35' W 122°21'0 0.0
2015-May-17 23:33N 47°35' W 122°21'0 0.0
2015-May-17 22:29N 47°35' W 122°21'0 0.2
2015-May-17 22:27N 47°35' W 122°21'0 0.0
2015-May-17 21:31N 47°35' W 122°21'0 0.0
2015-May-17 21:18N 47°35' W 122°21'1 1.4
2015-May-17 20:33N 47°34' W 122°21'0 0.0
2015-May-17 20:32N 47°34' W 122°21'1 1.1
2015-May-17 19:33N 47°35' W 122°21'0 0.0
2015-May-17 19:11N 47°35' W 122°21'0 0.0
2015-May-17 18:33N 47°35' W 122°21'0 0.0
2015-May-17 18:26N 47°35' W 122°21'0 0.0
2015-May-17 17:32N 47°35' W 122°21'0 0.0
2015-May-17 17:26N 47°35' W 122°21'0 0.0
2015-May-17 16:32N 47°35' W 122°21'0 0.0
2015-May-17 16:31N 47°35' W 122°21'0 0.0
2015-May-17 15:32N 47°35' W 122°21'0 0.0
2015-May-17 15:29N 47°35' W 122°21'0 0.0
2015-May-17 14:33N 47°35' W 122°21'0 0.0
2015-May-17 14:33N 47°35' W 122°21'0 0.0
2015-May-17 13:33N 47°35' W 122°21'0 0.0
2015-May-17 13:17N 47°35' W 122°21'0 0.0
2015-May-17 12:33N 47°35' W 122°21'0 0.0
2015-May-17 12:32N 47°35' W 122°21'0 0.0
2015-May-17 11:33N 47°35' W 122°21'0 0.0
2015-May-17 11:16N 47°35' W 122°21'0 0.0
2015-May-17 10:32N 47°35' W 122°21'0 0.2
2015-May-17 10:30N 47°35' W 122°21'0 0.0
2015-May-17 09:33N 47°35' W 122°21'0 0.0
2015-May-17 09:19N 47°35' W 122°21'0 0.0
2015-May-17 08:33N 47°35' W 122°21'0 0.0
2015-May-17 08:24N 47°35' W 122°21'0 0.0
2015-May-17 07:30N 47°35' W 122°21'0 0.0
2015-May-17 07:29N 47°35' W 122°21'0 0.0
2015-May-17 06:33N 47°35' W 122°21'0 0.0
2015-May-17 06:33N 47°35' W 122°21'0 0.0
2015-May-17 06:03N 47°35' W 122°21'0 0.0
2015-May-17 05:33N 47°35' W 122°21'0 0.0
2015-May-17 04:31N 47°35' W 122°21'0 0.0
2015-May-17 04:28N 47°35' W 122°21'0 0.0
2015-May-17 03:33N 47°35' W 122°21'0 0.0
2015-May-17 03:32N 47°35' W 122°21'0 0.0
2015-May-17 02:33N 47°35' W 122°21'0 0.0
2015-May-17 02:32N 47°35' W 122°21'0 0.0
2015-May-17 01:33N 47°35' W 122°21'0 0.0
2015-May-17 01:25N 47°35' W 122°21'0 0.0
2015-May-17 00:33N 47°35' W 122°21'0 0.0
2015-May-17 00:29N 47°35' W 122°21'0 0.0
2015-May-16 23:33N 47°35' W 122°21'0 0.0
2015-May-16 23:29N 47°35' W 122°21'0 0.0
2015-May-16 22:33N 47°35' W 122°21'0 0.0
2015-May-16 22:28N 47°35' W 122°21'0 0.0
2015-May-16 21:33N 47°35' W 122°21'0 0.0
2015-May-16 21:29N 47°35' W 122°21'0 0.0
2015-May-16 20:34N 47°35' W 122°21'0 0.0
2015-May-16 20:33N 47°35' W 122°21'1 1.1
2015-May-16 19:33N 47°34' W 122°21'0 0.0
2015-May-16 19:33N 47°34' W 122°21'0 0.0
2015-May-16 18:33N 47°34' W 122°21'0 0.0
2015-May-16 18:33N 47°34' W 122°21'0 0.0
2015-May-16 17:34N 47°34' W 122°21'0 0.0
2015-May-16 17:33N 47°34' W 122°21'0 0.0
2015-May-16 16:33N 47°34' W 122°21'0 0.0
2015-May-16 16:31N 47°34' W 122°21'1 1.1
2015-May-16 15:33N 47°35' W 122°21'0 0.0
2015-May-16 15:30N 47°35' W 122°21'0 0.0
2015-May-16 14:30N 47°35' W 122°21'0 0.0
2015-May-16 14:30N 47°35' W 122°21'0 0.0
2015-May-16 13:29N 47°35' W 122°21'0 0.0
2015-May-16 13:29N 47°35' W 122°21'0 0.0
2015-May-16 12:33N 47°35' W 122°21'0 0.0
2015-May-16 12:24N 47°35' W 122°21'0 0.0
2015-May-16 11:33N 47°35' W 122°21'0 0.0
2015-May-16 11:29N 47°35' W 122°21'0 0.0
2015-May-16 10:33N 47°35' W 122°21'0 0.0
2015-May-16 10:29N 47°35' W 122°21'0 0.0
2015-May-16 09:33N 47°35' W 122°21'0 0.0
2015-May-16 09:29N 47°35' W 122°21'0 0.0
2015-May-16 08:34N 47°35' W 122°21'0 0.0
2015-May-16 08:33N 47°35' W 122°21'0 0.0
2015-May-16 07:33N 47°35' W 122°21'0 0.0
2015-May-16 07:33N 47°35' W 122°21'0 0.0
2015-May-16 06:31N 47°35' W 122°21'0 0.0
2015-May-16 06:28N 47°35' W 122°21'0 0.0
2015-May-16 05:57N 47°35' W 122°21'0 0.0
2015-May-16 05:33N 47°35' W 122°21'0 0.0
2015-May-16 04:31N 47°35' W 122°21'0 0.0
2015-May-16 04:31N 47°35' W 122°21'0 0.0
2015-May-16 03:33N 47°35' W 122°21'0 0.0
2015-May-16 03:31N 47°35' W 122°21'0 0.0
2015-May-16 02:33N 47°35' W 122°21'0 0.0
2015-May-16 02:31N 47°35' W 122°21'0 0.0
2015-May-16 01:29N 47°35' W 122°21'0 0.0
2015-May-16 01:19N 47°35' W 122°21'0 0.0
2015-May-16 00:34N 47°35' W 122°21'0 0.0
2015-May-16 00:33N 47°35' W 122°21'0 0.0
2015-May-15 23:31N 47°35' W 122°21'0 0.4
2015-May-15 23:29N 47°35' W 122°21'0 0.1
2015-May-15 22:33N 47°35' W 122°21'1 0.9
2015-May-15 21:28N 47°34' W 122°21'0 0.0
2015-May-15 20:33N 47°34' W 122°21'0 0.0
2015-May-15 19:33N 47°34' W 122°21'0 0.0
2015-May-15 18:33N 47°34' W 122°21'0 0.0
2015-May-15 17:33N 47°34' W 122°21'0 0.0
2015-May-15 16:33N 47°34' W 122°21'0 0.0
2015-May-15 15:33N 47°34' W 122°21'0 0.0
2015-May-15 14:31N 47°34' W 122°21'0 0.0
2015-May-15 13:32N 47°34' W 122°21'0 0.0
2015-May-15 12:33N 47°34' W 122°21'0 0.0
2015-May-15 11:33N 47°34' W 122°21'0 0.0
2015-May-15 10:33N 47°34' W 122°21'0 0.0
2015-May-15 09:33N 47°34' W 122°21'0 0.0
2015-May-15 08:33N 47°34' W 122°21'0 0.0
2015-May-15 07:33N 47°34' W 122°21'0 0.0
2015-May-15 06:33N 47°34' W 122°21'0 0.0
2015-May-15 05:33N 47°34' W 122°21'0 0.0
2015-May-15 04:33N 47°34' W 122°21'0 0.0
2015-May-15 03:33N 47°34' W 122°21'0 0.2
2015-May-15 02:33N 47°35' W 122°21'3 3.5
2015-May-15 01:33N 47°34' W 122°26'7 6.8
2015-May-15 00:33N 47°28' W 122°31'8 7.4
2015-May-14 23:33N 47°21' W 122°32'7 6.7
2015-May-14 22:33N 47°17' W 122°25'2 1.3
2015-May-14 21:22N 47°16' W 122°23'0 0.0
2015-May-14 20:16N 47°16' W 122°23'0 0.0
2015-May-14 18:12N 47°16' W 122°23'1 2.2
2015-May-14 17:33N 47°17' W 122°25'0 1.2
2015-May-14 17:26N 47°17' W 122°25'0 0.0
2015-May-14 16:33N 47°17' W 122°25'0 0.0
2015-May-14 15:33N 47°17' W 122°25'0 0.0
2015-May-14 14:33N 47°17' W 122°25'0 0.0
2015-May-14 13:33N 47°17' W 122°25'0 0.0
2015-May-14 12:31N 47°17' W 122°25'4 4.1
2015-May-14 11:40N 47°19' W 122°28'1 6.0
2015-May-14 11:33N 47°20' W 122°27'1 5.6
2015-May-14 11:20N 47°21' W 122°26'3 4.0
2015-May-14 10:33N 47°23' W 122°23'4 5.4
2015-May-14 09:44N 47°27' W 122°25'1 5.8
2015-May-14 09:33N 47°28' W 122°25'1 5.7
2015-May-14 09:19N 47°29' W 122°26'4 5.8
2015-May-14 08:33N 47°33' W 122°27'0 5.8
2015-May-14 08:29N 47°34' W 122°27'5 4.9
2015-May-14 07:34N 47°36' W 122°21'0 0.6
2015-May-14 07:29N 47°36' W 122°21'0 0.0
2015-May-14 06:30N 47°36' W 122°21'0 0.0
2015-May-14 06:28N 47°36' W 122°21'0 0.2
2015-May-14 06:14N 47°36' W 122°21'0 0.1
2015-May-14 05:33N 47°36' W 122°21'0 0.0
2015-May-14 04:34N 47°36' W 122°21'0 0.0
2015-May-14 04:34N 47°36' W 122°21'0 0.0
2015-May-14 03:33N 47°36' W 122°21'0 0.0
2015-May-14 02:33N 47°36' W 122°21'0 0.0
2015-May-14 02:33N 47°36' W 122°21'0 0.0
2015-May-14 01:33N 47°36' W 122°21'0 0.0
2015-May-14 01:33N 47°36' W 122°21'0 0.0
2015-May-14 00:29N 47°36' W 122°21'0 0.1
2015-May-14 00:12N 47°36' W 122°21'1 1.4
2015-May-13 23:33N 47°36' W 122°21'0 5.2
2015-May-13 23:32N 47°36' W 122°22'5 5.2
2015-May-13 22:33N 47°32' W 122°25'1 7.1
2015-May-13 22:27N 47°31' W 122°25'6 6.6
2015-May-13 21:33N 47°26' W 122°22'5 5.5
2015-May-13 20:33N 47°20' W 122°25'4 3.8
2015-May-13 19:33N 47°17' W 122°25'0 0.0
2015-May-13 18:33N 47°17' W 122°25'0 0.0
2015-May-13 17:33N 47°17' W 122°25'0 0.0
2015-May-13 16:33N 47°17' W 122°25'0 0.0
2015-May-13 15:33N 47°17' W 122°25'0 0.1
2015-May-13 14:33N 47°17' W 122°25'1 0.7
2015-May-13 13:33N 47°16' W 122°25'0 0.0
2015-May-13 12:33N 47°16' W 122°25'0 0.0
2015-May-13 11:33N 47°16' W 122°25'0 0.0
2015-May-13 10:33N 47°16' W 122°25'0 0.0
2015-May-13 09:33N 47°16' W 122°25'0 0.0
2015-May-13 08:33N 47°16' W 122°25'0 0.0
2015-May-13 07:33N 47°16' W 122°25'0 0.0
2015-May-13 06:33N 47°16' W 122°25'0 0.0
2015-May-13 05:33N 47°16' W 122°25'0 0.0
2015-May-13 04:33N 47°16' W 122°25'0 0.0
2015-May-13 03:33N 47°16' W 122°25'0 0.0
2015-May-13 02:33N 47°16' W 122°25'0 0.0
2015-May-13 01:33N 47°16' W 122°25'1 0.5
2015-May-13 00:28N 47°16' W 122°24'0 0.0
2015-May-12 22:30N 47°16' W 122°24'  
Track history (hours):
 
Tides and Currents Weather Stations Pressure Air Temp Water Temp Dewpoint Dewpoint Depression Visibility Wind Speed Wind Dir Waves Ship Positions

Ernest Campbell

Owner: Campbell Leasing Company LLC, Wrangell, AK. More information available from US FCC via Universal Licensing System and Coast Guard Vessel Documentation Center.

Last reported at 2015-May-22 21:33 UTC. Time now 2015-May-22 22:12 UTC.
Position N 47°36' W 122°21'.

Length 33 m; draft 4.6 m.

Type: Tow > 200 m length. MMSI: 366882320.

Date/timePositionNaut miles runAvg speedWind from/ knotsBaromVisibWave heightAir tempDewpointWater temp
2015-May-22 21:33N 47°36' W 122°21'0 0.1
2015-May-22 21:29N 47°36' W 122°21'0 0.0
2015-May-22 20:33N 47°36' W 122°21'0 0.0
2015-May-22 20:33N 47°36' W 122°21'0 0.0
2015-May-22 19:33N 47°36' W 122°21'0 0.0
2015-May-22 19:33N 47°36' W 122°21'0 0.0
2015-May-22 18:33N 47°36' W 122°21'0 0.0
2015-May-22 18:33N 47°36' W 122°21'0 0.0
2015-May-22 17:33N 47°36' W 122°21'0 0.0
2015-May-22 17:27N 47°36' W 122°21'0 0.0
2015-May-22 16:33N 47°36' W 122°21'0 0.2
2015-May-22 16:31N 47°36' W 122°21'1 1.2
2015-May-22 15:33N 47°34' W 122°21'1 2.0
2015-May-22 14:59N 47°36' W 122°21'0 0.0
2015-May-22 14:33N 47°36' W 122°21'0 0.8
2015-May-22 14:30N 47°36' W 122°21'4 4.6
2015-May-22 13:33N 47°34' W 122°27'7 6.8
2015-May-22 12:33N 47°28' W 122°31'7 6.8
2015-May-22 11:33N 47°21' W 122°32'6 6.1
2015-May-22 10:33N 47°17' W 122°26'2 2.0
2015-May-22 09:25N 47°16' W 122°23'0 0.0
2015-May-22 08:29N 47°16' W 122°23'0 0.0
2015-May-22 07:33N 47°16' W 122°23'0 0.0
2015-May-22 06:31N 47°16' W 122°23'0 0.0
2015-May-22 05:30N 47°16' W 122°23'0 0.0
2015-May-22 04:33N 47°16' W 122°23'0 0.0
2015-May-22 00:06N 47°16' W 122°23'0 0.0
2015-May-21 22:22N 47°16' W 122°23'0 0.0
2015-May-21 17:07N 47°16' W 122°23'0 0.0
2015-May-21 14:28N 47°16' W 122°23'0 0.0
2015-May-21 09:04N 47°16' W 122°23'0 0.0
2015-May-21 08:04N 47°16' W 122°23'0 0.2
2015-May-21 07:33N 47°16' W 122°23'0 0.0
2015-May-21 06:32N 47°16' W 122°23'0 0.0
2015-May-21 05:33N 47°16' W 122°23'0 0.0
2015-May-21 04:32N 47°16' W 122°23'0 0.0
2015-May-21 03:33N 47°16' W 122°23'0 0.3
2015-May-21 02:33N 47°16' W 122°23'2 2.4
2015-May-21 01:42N 47°17' W 122°26'0 0.0
2015-May-21 01:33N 47°17' W 122°26'3 3.2
2015-May-21 00:33N 47°19' W 122°30'4 4.4
2015-May-20 23:33N 47°23' W 122°32'0 4.9
2015-May-20 23:31N 47°23' W 122°32'5 5.0
2015-May-20 22:33N 47°28' W 122°31'2 4.8
2015-May-20 22:05N 47°30' W 122°30'3 4.9
2015-May-20 21:33N 47°32' W 122°28'0 5.3
2015-May-20 21:30N 47°33' W 122°28'5 5.1
2015-May-20 20:32N 47°36' W 122°23'0 5.2
2015-May-20 20:30N 47°36' W 122°23'1 1.4
2015-May-20 19:33N 47°35' W 122°21'0 0.0
2015-May-20 19:30N 47°35' W 122°21'0 0.0
2015-May-20 18:28N 47°35' W 122°21'0 0.0
2015-May-20 18:20N 47°35' W 122°21'0 0.0
2015-May-20 17:33N 47°35' W 122°21'0 0.0
2015-May-20 17:19N 47°35' W 122°21'0 0.1
2015-May-20 16:33N 47°35' W 122°21'0 0.0
2015-May-20 16:33N 47°35' W 122°21'0 0.0
2015-May-20 15:33N 47°35' W 122°21'0 0.0
2015-May-20 15:33N 47°35' W 122°21'0 0.0
2015-May-20 14:33N 47°35' W 122°21'0 0.0
2015-May-20 13:33N 47°35' W 122°21'0 3.5
2015-May-20 13:33N 47°35' W 122°21'0 0.0
2015-May-20 12:28N 47°35' W 122°21'0 0.0
2015-May-20 12:16N 47°35' W 122°21'0 0.0
2015-May-20 11:23N 47°35' W 122°21'0 0.0
2015-May-20 10:33N 47°35' W 122°21'0 0.8
2015-May-20 10:30N 47°35' W 122°21'0 0.0
2015-May-20 09:33N 47°35' W 122°21'0 0.0
2015-May-20 08:59N 47°35' W 122°21'0 0.1
2015-May-20 08:33N 47°35' W 122°21'0 0.0
2015-May-20 08:24N 47°35' W 122°21'0 0.0
2015-May-20 07:33N 47°35' W 122°21'0 0.0
2015-May-20 07:18N 47°35' W 122°21'0 0.1
2015-May-20 06:33N 47°35' W 122°21'0 0.0
2015-May-20 06:33N 47°35' W 122°21'0 0.1
2015-May-20 06:08N 47°35' W 122°21'0 0.0
2015-May-20 05:33N 47°35' W 122°21'0 0.0
2015-May-20 04:32N 47°35' W 122°21'0 0.1
2015-May-20 04:28N 47°35' W 122°21'0 0.0
2015-May-20 03:31N 47°35' W 122°21'0 0.2
2015-May-20 03:18N 47°35' W 122°21'0 0.0
2015-May-20 02:33N 47°35' W 122°21'0 0.0
2015-May-20 02:22N 47°35' W 122°21'0 0.0
2015-May-20 01:32N 47°35' W 122°21'0 0.0
2015-May-20 01:32N 47°35' W 122°21'0 0.3
2015-May-20 00:33N 47°35' W 122°21'0 5.3
2015-May-20 00:32N 47°35' W 122°21'0 0.4
2015-May-19 23:33N 47°35' W 122°21'0 0.2
2015-May-19 23:31N 47°35' W 122°21'0 0.0
2015-May-19 22:31N 47°35' W 122°21'0 0.0
2015-May-19 22:31N 47°35' W 122°21'0 0.0
2015-May-19 21:31N 47°35' W 122°21'0 0.0
2015-May-19 20:31N 47°35' W 122°21'0 0.0
2015-May-19 19:33N 47°35' W 122°21'0 0.0
2015-May-19 18:33N 47°35' W 122°21'0 0.0
2015-May-19 17:33N 47°35' W 122°21'0 0.0
2015-May-19 16:32N 47°35' W 122°21'0 0.0
2015-May-19 15:33N 47°35' W 122°21'0 0.0
2015-May-19 14:32N 47°35' W 122°21'0 0.0
2015-May-19 13:29N 47°35' W 122°21'0 0.0
2015-May-19 12:33N 47°35' W 122°21'0 0.0
2015-May-19 11:46N 47°35' W 122°21'0 0.0
2015-May-19 11:33N 47°35' W 122°21'0 0.0
2015-May-19 11:30N 47°35' W 122°21'0 0.0
2015-May-19 10:33N 47°35' W 122°21'0 0.0
2015-May-19 10:30N 47°35' W 122°21'0 0.0
2015-May-19 09:33N 47°35' W 122°21'0 0.1
2015-May-19 09:30N 47°35' W 122°21'0 0.0
2015-May-19 08:33N 47°35' W 122°21'0 0.4
2015-May-19 08:30N 47°35' W 122°21'4 4.3
2015-May-19 07:33N 47°33' W 122°26'0 6.4
2015-May-19 07:30N 47°33' W 122°26'5 7.0
2015-May-19 06:44N 47°28' W 122°24'1 7.0
2015-May-19 06:33N 47°26' W 122°23'6 5.5
2015-May-19 05:33N 47°21' W 122°24'4 4.2
2015-May-19 04:33N 47°17' W 122°25'0 0.0
2015-May-19 03:33N 47°17' W 122°25'0 0.0
2015-May-19 02:33N 47°17' W 122°25'0 0.0
2015-May-19 01:33N 47°17' W 122°25'0 0.0
2015-May-19 00:40N 47°17' W 122°25'0 0.0
2015-May-19 00:33N 47°17' W 122°25'0 0.0
2015-May-18 23:35N 47°17' W 122°25'0 1.6
2015-May-18 23:33N 47°17' W 122°25'4 3.9
2015-May-18 22:33N 47°20' W 122°28'4 6.3
2015-May-18 21:58N 47°22' W 122°23'2 4.6
2015-May-18 21:33N 47°24' W 122°23'2 5.4
2015-May-18 21:13N 47°26' W 122°24'4 5.7
2015-May-18 20:33N 47°29' W 122°26'0 5.3
2015-May-18 20:29N 47°30' W 122°26'5 5.2
2015-May-18 19:33N 47°35' W 122°26'043.2
2015-May-18 19:33N 47°35' W 122°26'4 3.6
2015-May-18 18:33N 47°36' W 122°21'0 0.0
2015-May-18 18:22N 47°36' W 122°21'0 0.0
2015-May-18 17:29N 47°36' W 122°21'0 0.0
2015-May-18 17:27N 47°36' W 122°21'0 0.0
2015-May-18 16:33N 47°36' W 122°21'0 0.0
2015-May-18 16:32N 47°36' W 122°21'0 0.0
2015-May-18 15:33N 47°36' W 122°21'0 0.3
2015-May-18 15:32N 47°36' W 122°21'0 0.0
2015-May-18 14:33N 47°36' W 122°21'0 0.1
2015-May-18 14:26N 47°36' W 122°21'0 0.0
2015-May-18 13:28N 47°36' W 122°21'0 0.0
2015-May-18 13:14N 47°36' W 122°21'1 0.9
2015-May-18 12:33N 47°35' W 122°21'0 0.1
2015-May-18 12:29N 47°35' W 122°21'0 0.0
2015-May-18 11:33N 47°35' W 122°21'0 0.1
2015-May-18 11:29N 47°35' W 122°21'0 0.0
2015-May-18 10:33N 47°35' W 122°21'0 0.0
2015-May-18 10:14N 47°35' W 122°21'0 0.0
2015-May-18 09:33N 47°35' W 122°21'0 0.0
2015-May-18 09:12N 47°35' W 122°21'0 0.0
2015-May-18 08:33N 47°35' W 122°21'0 0.0
2015-May-18 08:28N 47°35' W 122°21'0 0.0
2015-May-18 07:32N 47°35' W 122°21'0 0.0
2015-May-18 07:27N 47°35' W 122°21'1 0.6
2015-May-18 06:33N 47°34' W 122°21'0 0.0
2015-May-18 06:32N 47°34' W 122°21'0 0.0
2015-May-18 06:12N 47°34' W 122°21'0 0.0
2015-May-18 05:33N 47°34' W 122°21'0 0.0
2015-May-18 04:33N 47°34' W 122°21'0 0.0
2015-May-18 04:31N 47°34' W 122°21'0 0.0
2015-May-18 03:31N 47°34' W 122°21'0 0.4
2015-May-18 03:30N 47°34' W 122°21'1 1.0
2015-May-18 02:33N 47°35' W 122°21'0 3.0
2015-May-18 02:29N 47°36' W 122°21'0 0.1
2015-May-18 01:33N 47°35' W 122°21'0 0.0
2015-May-18 01:29N 47°35' W 122°21'0 0.0
2015-May-18 00:33N 47°35' W 122°21'0 0.0
2015-May-18 00:28N 47°35' W 122°21'0 0.0
2015-May-17 23:33N 47°35' W 122°21'0 0.0
2015-May-17 23:33N 47°35' W 122°21'0 0.0
2015-May-17 22:29N 47°35' W 122°21'0 0.2
2015-May-17 22:27N 47°35' W 122°21'0 0.0
2015-May-17 21:31N 47°35' W 122°21'0 0.0
2015-May-17 21:18N 47°35' W 122°21'1 1.4
2015-May-17 20:33N 47°34' W 122°21'0 0.0
2015-May-17 20:32N 47°34' W 122°21'1 1.1
2015-May-17 19:33N 47°35' W 122°21'0 0.0
2015-May-17 19:11N 47°35' W 122°21'0 0.0
2015-May-17 18:33N 47°35' W 122°21'0 0.0
2015-May-17 18:26N 47°35' W 122°21'0 0.0
2015-May-17 17:32N 47°35' W 122°21'0 0.0
2015-May-17 17:26N 47°35' W 122°21'0 0.0
2015-May-17 16:32N 47°35' W 122°21'0 0.0
2015-May-17 16:31N 47°35' W 122°21'0 0.0
2015-May-17 15:32N 47°35' W 122°21'0 0.0
2015-May-17 15:29N 47°35' W 122°21'0 0.0
2015-May-17 14:33N 47°35' W 122°21'0 0.0
2015-May-17 14:33N 47°35' W 122°21'0 0.0
2015-May-17 13:33N 47°35' W 122°21'0 0.0
2015-May-17 13:17N 47°35' W 122°21'0 0.0
2015-May-17 12:33N 47°35' W 122°21'0 0.0
2015-May-17 12:32N 47°35' W 122°21'0 0.0
2015-May-17 11:33N 47°35' W 122°21'0 0.0
2015-May-17 11:16N 47°35' W 122°21'0 0.0
2015-May-17 10:32N 47°35' W 122°21'0 0.2
2015-May-17 10:30N 47°35' W 122°21'0 0.0
2015-May-17 09:33N 47°35' W 122°21'0 0.0
2015-May-17 09:19N 47°35' W 122°21'0 0.0
2015-May-17 08:33N 47°35' W 122°21'0 0.0
2015-May-17 08:24N 47°35' W 122°21'0 0.0
2015-May-17 07:30N 47°35' W 122°21'0 0.0
2015-May-17 07:29N 47°35' W 122°21'0 0.0
2015-May-17 06:33N 47°35' W 122°21'0 0.0
2015-May-17 06:33N 47°35' W 122°21'0 0.0
2015-May-17 06:03N 47°35' W 122°21'0 0.0
2015-May-17 05:33N 47°35' W 122°21'0 0.0
2015-May-17 04:31N 47°35' W 122°21'0 0.0
2015-May-17 04:28N 47°35' W 122°21'0 0.0
2015-May-17 03:33N 47°35' W 122°21'0 0.0
2015-May-17 03:32N 47°35' W 122°21'0 0.0
2015-May-17 02:33N 47°35' W 122°21'0 0.0
2015-May-17 02:32N 47°35' W 122°21'0 0.0
2015-May-17 01:33N 47°35' W 122°21'0 0.0
2015-May-17 01:25N 47°35' W 122°21'0 0.0
2015-May-17 00:33N 47°35' W 122°21'0 0.0
2015-May-17 00:29N 47°35' W 122°21'0 0.0
2015-May-16 23:33N 47°35' W 122°21'0 0.0
2015-May-16 23:29N 47°35' W 122°21'0 0.0
2015-May-16 22:33N 47°35' W 122°21'0 0.0
2015-May-16 22:28N 47°35' W 122°21'0 0.0
2015-May-16 21:33N 47°35' W 122°21'0 0.0
2015-May-16 21:29N 47°35' W 122°21'0 0.0
2015-May-16 20:34N 47°35' W 122°21'0 0.0
2015-May-16 20:33N 47°35' W 122°21'1 1.1
2015-May-16 19:33N 47°34' W 122°21'0 0.0
2015-May-16 19:33N 47°34' W 122°21'0 0.0
2015-May-16 18:33N 47°34' W 122°21'0 0.0
2015-May-16 18:33N 47°34' W 122°21'0 0.0
2015-May-16 17:34N 47°34' W 122°21'0 0.0
2015-May-16 17:33N 47°34' W 122°21'0 0.0
2015-May-16 16:33N 47°34' W 122°21'0 0.0
2015-May-16 16:31N 47°34' W 122°21'1 1.1
2015-May-16 15:33N 47°35' W 122°21'0 0.0
2015-May-16 15:30N 47°35' W 122°21'0 0.0
2015-May-16 14:30N 47°35' W 122°21'0 0.0
2015-May-16 14:30N 47°35' W 122°21'0 0.0
2015-May-16 13:29N 47°35' W 122°21'0 0.0
2015-May-16 13:29N 47°35' W 122°21'0 0.0
2015-May-16 12:33N 47°35' W 122°21'0 0.0
2015-May-16 12:24N 47°35' W 122°21'0 0.0
2015-May-16 11:33N 47°35' W 122°21'0 0.0
2015-May-16 11:29N 47°35' W 122°21'0 0.0
2015-May-16 10:33N 47°35' W 122°21'0 0.0
2015-May-16 10:29N 47°35' W 122°21'0 0.0
2015-May-16 09:33N 47°35' W 122°21'0 0.0
2015-May-16 09:29N 47°35' W 122°21'0 0.0
2015-May-16 08:34N 47°35' W 122°21'0 0.0
2015-May-16 08:33N 47°35' W 122°21'0 0.0
2015-May-16 07:33N 47°35' W 122°21'0 0.0
2015-May-16 07:33N 47°35' W 122°21'0 0.0
2015-May-16 06:31N 47°35' W 122°21'0 0.0
2015-May-16 06:28N 47°35' W 122°21'0 0.0
2015-May-16 05:57N 47°35' W 122°21'0 0.0
2015-May-16 05:33N 47°35' W 122°21'0 0.0
2015-May-16 04:31N 47°35' W 122°21'0 0.0
2015-May-16 04:31N 47°35' W 122°21'0 0.0
2015-May-16 03:33N 47°35' W 122°21'0 0.0
2015-May-16 03:31N 47°35' W 122°21'0 0.0
2015-May-16 02:33N 47°35' W 122°21'0 0.0
2015-May-16 02:31N 47°35' W 122°21'0 0.0
2015-May-16 01:29N 47°35' W 122°21'0 0.0
2015-May-16 01:19N 47°35' W 122°21'0 0.0
2015-May-16 00:34N 47°35' W 122°21'0 0.0
2015-May-16 00:33N 47°35' W 122°21'0 0.0
2015-May-15 23:31N 47°35' W 122°21'0 0.4
2015-May-15 23:29N 47°35' W 122°21'0 0.1
2015-May-15 22:33N 47°35' W 122°21'1 0.9
2015-May-15 21:28N 47°34' W 122°21'0 0.0
2015-May-15 20:33N 47°34' W 122°21'0 0.0
2015-May-15 19:33N 47°34' W 122°21'0 0.0
2015-May-15 18:33N 47°34' W 122°21'0 0.0
2015-May-15 17:33N 47°34' W 122°21'0 0.0
2015-May-15 16:33N 47°34' W 122°21'0 0.0
2015-May-15 15:33N 47°34' W 122°21'0 0.0
2015-May-15 14:31N 47°34' W 122°21'0 0.0
2015-May-15 13:32N 47°34' W 122°21'0 0.0
2015-May-15 12:33N 47°34' W 122°21'0 0.0
2015-May-15 11:33N 47°34' W 122°21'0 0.0
2015-May-15 10:33N 47°34' W 122°21'0 0.0
2015-May-15 09:33N 47°34' W 122°21'0 0.0
2015-May-15 08:33N 47°34' W 122°21'0 0.0
2015-May-15 07:33N 47°34' W 122°21'0 0.0
2015-May-15 06:33N 47°34' W 122°21'0 0.0
2015-May-15 05:33N 47°34' W 122°21'0 0.0
2015-May-15 04:33N 47°34' W 122°21'0 0.0
2015-May-15 03:33N 47°34' W 122°21'0 0.2
2015-May-15 02:33N 47°35' W 122°21'3 3.5
2015-May-15 01:33N 47°34' W 122°26'7 6.8
2015-May-15 00:33N 47°28' W 122°31'8 7.4
2015-May-14 23:33N 47°21' W 122°32'7 6.7
2015-May-14 22:33N 47°17' W 122°25'2 1.3
2015-May-14 21:22N 47°16' W 122°23'0 0.0
2015-May-14 20:16N 47°16' W 122°23'0 0.0
2015-May-14 18:12N 47°16' W 122°23'1 2.2
2015-May-14 17:33N 47°17' W 122°25'0 1.2
2015-May-14 17:26N 47°17' W 122°25'0 0.0
2015-May-14 16:33N 47°17' W 122°25'0 0.0
2015-May-14 15:33N 47°17' W 122°25'0 0.0
2015-May-14 14:33N 47°17' W 122°25'0 0.0
2015-May-14 13:33N 47°17' W 122°25'0 0.0
2015-May-14 12:31N 47°17' W 122°25'4 4.1
2015-May-14 11:40N 47°19' W 122°28'1 6.0
2015-May-14 11:33N 47°20' W 122°27'1 5.6
2015-May-14 11:20N 47°21' W 122°26'3 4.0
2015-May-14 10:33N 47°23' W 122°23'4 5.4
2015-May-14 09:44N 47°27' W 122°25'1 5.8
2015-May-14 09:33N 47°28' W 122°25'1 5.7
2015-May-14 09:19N 47°29' W 122°26'4 5.8
2015-May-14 08:33N 47°33' W 122°27'0 5.8
2015-May-14 08:29N 47°34' W 122°27'5 4.9
2015-May-14 07:34N 47°36' W 122°21'0 0.6
2015-May-14 07:29N 47°36' W 122°21'0 0.0
2015-May-14 06:30N 47°36' W 122°21'0 0.0
2015-May-14 06:28N 47°36' W 122°21'0 0.2
2015-May-14 06:14N 47°36' W 122°21'0 0.1
2015-May-14 05:33N 47°36' W 122°21'0 0.0
2015-May-14 04:34N 47°36' W 122°21'0 0.0
2015-May-14 04:34N 47°36' W 122°21'0 0.0
2015-May-14 03:33N 47°36' W 122°21'0 0.0
2015-May-14 02:33N 47°36' W 122°21'0 0.0
2015-May-14 02:33N 47°36' W 122°21'0 0.0
2015-May-14 01:33N 47°36' W 122°21'0 0.0
2015-May-14 01:33N 47°36' W 122°21'0 0.0
2015-May-14 00:29N 47°36' W 122°21'0 0.1
2015-May-14 00:12N 47°36' W 122°21'1 1.4
2015-May-13 23:33N 47°36' W 122°21'0 5.2
2015-May-13 23:32N 47°36' W 122°22'5 5.2
2015-May-13 22:33N 47°32' W 122°25'1 7.1
2015-May-13 22:27N 47°31' W 122°25'6 6.6
2015-May-13 21:33N 47°26' W 122°22'5 5.5
2015-May-13 20:33N 47°20' W 122°25'4 3.8
2015-May-13 19:33N 47°17' W 122°25'0 0.0
2015-May-13 18:33N 47°17' W 122°25'0 0.0
2015-May-13 17:33N 47°17' W 122°25'0 0.0
2015-May-13 16:33N 47°17' W 122°25'0 0.0
2015-May-13 15:33N 47°17' W 122°25'0 0.1
2015-May-13 14:33N 47°17' W 122°25'1 0.7
2015-May-13 13:33N 47°16' W 122°25'0 0.0
2015-May-13 12:33N 47°16' W 122°25'0 0.0
2015-May-13 11:33N 47°16' W 122°25'0 0.0
2015-May-13 10:33N 47°16' W 122°25'0 0.0
2015-May-13 09:33N 47°16' W 122°25'0 0.0
2015-May-13 08:33N 47°16' W 122°25'0 0.0
2015-May-13 07:33N 47°16' W 122°25'0 0.0
2015-May-13 06:33N 47°16' W 122°25'0 0.0
2015-May-13 05:33N 47°16' W 122°25'0 0.0
2015-May-13 04:33N 47°16' W 122°25'0 0.0
2015-May-13 03:33N 47°16' W 122°25'0 0.0
2015-May-13 02:33N 47°16' W 122°25'0 0.0
2015-May-13 01:33N 47°16' W 122°25'1 0.5
2015-May-13 00:28N 47°16' W 122°24'0 0.0
2015-May-12 22:30N 47°16' W 122°24'  

Dump ship's entire track history